sensor_id;sensor_type;location;lat;lon;timestamp;pressure;altitude;pressure_sealevel;temperature;humidity
55263;BME280;41125;48.752;9.168;2023-05-22T00:00:16;96488.03;;;15.94;81.33
55263;BME280;41125;48.752;9.168;2023-05-22T00:00:47;96492.69;;;15.93;81.61
55263;BME280;41125;48.752;9.168;2023-05-22T00:01:18;96489.50;;;15.91;81.44
55263;BME280;41125;48.752;9.168;2023-05-22T00:01:53;96488.69;;;15.91;81.53
55263;BME280;41125;48.752;9.168;2023-05-22T00:02:26;96494.16;;;15.91;81.99
55263;BME280;41125;48.752;9.168;2023-05-22T00:02:58;96487.87;;;15.90;81.55
55263;BME280;41125;48.752;9.168;2023-05-22T00:03:30;96492.56;;;15.90;81.78
55263;BME280;41125;48.752;9.168;2023-05-22T00:04:03;96488.22;;;15.89;81.79
55263;BME280;41125;48.752;9.168;2023-05-22T00:04:35;96485.50;;;15.89;81.71
55263;BME280;41125;48.752;9.168;2023-05-22T00:05:10;96487.44;;;15.88;81.85
55263;BME280;41125;48.752;9.168;2023-05-22T00:05:41;96484.69;;;15.88;81.85
55263;BME280;41125;48.752;9.168;2023-05-22T00:06:15;96488.56;;;15.87;81.80
55263;BME280;41125;48.752;9.168;2023-05-22T00:06:49;96487.75;;;15.87;82.15
55263;BME280;41125;48.752;9.168;2023-05-22T00:07:22;96486.97;;;15.86;81.99
55263;BME280;41125;48.752;9.168;2023-05-22T00:07:54;96494.03;;;15.87;82.08
55263;BME280;41125;48.752;9.168;2023-05-22T00:08:26;96488.91;;;15.86;82.03
55263;BME280;41125;48.752;9.168;2023-05-22T00:08:57;96486.16;;;15.86;81.89
55263;BME280;41125;48.752;9.168;2023-05-22T00:09:28;96488.44;;;15.84;82.25
55263;BME280;41125;48.752;9.168;2023-05-22T00:09:59;96488.44;;;15.84;82.23
55263;BME280;41125;48.752;9.168;2023-05-22T00:10:31;96486.03;;;15.82;82.28
55263;BME280;41125;48.752;9.168;2023-05-22T00:11:02;96489.91;;;15.81;82.30
55263;BME280;41125;48.752;9.168;2023-05-22T00:11:34;96482.84;;;15.80;82.46
55263;BME280;41125;48.752;9.168;2023-05-22T00:12:07;96485.56;;;15.80;82.44
55263;BME280;41125;48.752;9.168;2023-05-22T00:12:42;96472.56;;;15.77;82.21
55263;BME280;41125;48.752;9.168;2023-05-22T00:13:13;96478.03;;;15.77;82.46
55263;BME280;41125;48.752;9.168;2023-05-22T00:13:45;96487.37;;;15.76;82.66
55263;BME280;41125;48.752;9.168;2023-05-22T00:14:16;96483.03;;;15.75;82.35
55263;BME280;41125;48.752;9.168;2023-05-22T00:14:48;96485.78;;;15.75;82.48
55263;BME280;41125;48.752;9.168;2023-05-22T00:15:24;96477.09;;;15.73;82.69
55263;BME280;41125;48.752;9.168;2023-05-22T00:15:55;96475.50;;;15.72;82.39
55263;BME280;41125;48.752;9.168;2023-05-22T00:16:28;96480.97;;;15.72;82.75
55263;BME280;41125;48.752;9.168;2023-05-22T00:16:59;96476.16;;;15.69;82.75
55263;BME280;41125;48.752;9.168;2023-05-22T00:17:30;96480.03;;;15.68;82.83
55263;BME280;41125;48.752;9.168;2023-05-22T00:18:01;96481.50;;;15.65;82.93
55263;BME280;41125;48.752;9.168;2023-05-22T00:18:33;96479.09;;;15.64;82.91
55263;BME280;41125;48.752;9.168;2023-05-22T00:19:05;96470.44;;;15.62;82.94
55263;BME280;41125;48.752;9.168;2023-05-22T00:19:37;96475.91;;;15.62;83.12
55263;BME280;41125;48.752;9.168;2023-05-22T00:20:09;96484.09;;;15.62;83.41
55263;BME280;41125;48.752;9.168;2023-05-22T00:20:40;96481.69;;;15.60;83.52
55263;BME280;41125;48.752;9.168;2023-05-22T00:21:15;96484.44;;;15.60;83.21
55263;BME280;41125;48.752;9.168;2023-05-22T00:21:47;96476.59;;;15.59;83.38
55263;BME280;41125;48.752;9.168;2023-05-22T00:22:18;96475.00;;;15.58;83.41
55263;BME280;41125;48.752;9.168;2023-05-22T00:22:49;96478.53;;;15.58;83.32
55263;BME280;41125;48.752;9.168;2023-05-22T00:23:21;96470.97;;;15.55;83.66
55263;BME280;41125;48.752;9.168;2023-05-22T00:23:52;96481.09;;;15.55;83.47
55263;BME280;41125;48.752;9.168;2023-05-22T00:24:23;96468.56;;;15.54;83.78
55263;BME280;41125;48.752;9.168;2023-05-22T00:24:55;96475.16;;;15.53;83.81
55263;BME280;41125;48.752;9.168;2023-05-22T00:25:29;96471.97;;;15.51;83.91
55263;BME280;41125;48.752;9.168;2023-05-22T00:26:01;96478.56;;;15.50;83.79
55263;BME280;41125;48.752;9.168;2023-05-22T00:26:32;96476.97;;;15.49;83.85
55263;BME280;41125;48.752;9.168;2023-05-22T00:27:04;96467.50;;;15.46;84.33
55263;BME280;41125;48.752;9.168;2023-05-22T00:27:36;96473.28;;;15.45;84.06
55263;BME280;41125;48.752;9.168;2023-05-22T00:28:07;96472.50;;;15.44;84.36
55263;BME280;41125;48.752;9.168;2023-05-22T00:28:38;96471.69;;;15.43;84.11
55263;BME280;41125;48.752;9.168;2023-05-22T00:29:09;96468.97;;;15.43;84.56
55263;BME280;41125;48.752;9.168;2023-05-22T00:29:41;96472.03;;;15.42;84.63
55263;BME280;41125;48.752;9.168;2023-05-22T00:30:13;96471.22;;;15.41;84.33
55263;BME280;41125;48.752;9.168;2023-05-22T00:30:44;96472.37;;;15.40;84.82
55263;BME280;41125;48.752;9.168;2023-05-22T00:31:15;96470.75;;;15.39;84.77
55263;BME280;41125;48.752;9.168;2023-05-22T00:31:50;96468.03;;;15.39;84.81
55263;BME280;41125;48.752;9.168;2023-05-22T00:32:21;96476.56;;;15.38;84.82
55263;BME280;41125;48.752;9.168;2023-05-22T00:32:52;96477.34;;;15.38;84.59
55263;BME280;41125;48.752;9.168;2023-05-22T00:33:23;96480.09;;;15.38;84.67
55263;BME280;41125;48.752;9.168;2023-05-22T00:33:55;96473.81;;;15.38;84.94
55263;BME280;41125;48.752;9.168;2023-05-22T00:34:26;96475.75;;;15.37;84.68
55263;BME280;41125;48.752;9.168;2023-05-22T00:34:57;96474.97;;;15.37;85.06
55263;BME280;41125;48.752;9.168;2023-05-22T00:35:29;96468.69;;;15.36;84.97
55263;BME280;41125;48.752;9.168;2023-05-22T00:36:00;96467.09;;;15.35;84.68
55263;BME280;41125;48.752;9.168;2023-05-22T00:36:31;96470.94;;;15.34;85.21
55263;BME280;41125;48.752;9.168;2023-05-22T00:37:03;96470.94;;;15.34;85.20
55263;BME280;41125;48.752;9.168;2023-05-22T00:37:34;96468.56;;;15.33;85.14
55263;BME280;41125;48.752;9.168;2023-05-22T00:38:16;96468.56;;;15.33;85.25
55263;BME280;41125;48.752;9.168;2023-05-22T00:40:24;96467.28;;;15.30;85.73
55263;BME280;41125;48.752;9.168;2023-05-22T00:41:40;96471.16;;;15.29;86.37
55263;BME280;41125;48.752;9.168;2023-05-22T00:42:40;96469.22;;;15.30;86.44
55263;BME280;41125;48.752;9.168;2023-05-22T00:44:35;96470.69;;;15.27;87.03
55263;BME280;41125;48.752;9.168;2023-05-22T00:46:24;96472.50;;;15.23;87.64
55263;BME280;41125;48.752;9.168;2023-05-22T00:48:42;96467.22;;;15.18;88.48
55263;BME280;41125;48.752;9.168;2023-05-22T00:53:47;96469.88;;;15.06;89.36
55263;BME280;41125;48.752;9.168;2023-05-22T00:54:26;96469.41;;;15.04;89.82
55263;BME280;41125;48.752;9.168;2023-05-22T00:55:01;96467.81;;;15.03;89.66
55263;BME280;41125;48.752;9.168;2023-05-22T00:55:36;96462.66;;;15.01;89.53
55263;BME280;41125;48.752;9.168;2023-05-22T00:56:09;96470.06;;;15.01;89.40
55263;BME280;41125;48.752;9.168;2023-05-22T00:56:42;96469.59;;;14.99;89.18
55263;BME280;41125;48.752;9.168;2023-05-22T00:57:13;96468.78;;;14.98;89.62
55263;BME280;41125;48.752;9.168;2023-05-22T00:57:46;96469.12;;;14.97;89.18
55263;BME280;41125;48.752;9.168;2023-05-22T00:58:20;96470.25;;;14.96;89.31
55263;BME280;41125;48.752;9.168;2023-05-22T00:58:54;96472.19;;;14.95;89.41
55263;BME280;41125;48.752;9.168;2023-05-22T00:59:28;96468.66;;;14.95;89.05
55263;BME280;41125;48.752;9.168;2023-05-22T01:00:02;96470.91;;;14.93;89.01
55263;BME280;41125;48.752;9.168;2023-05-22T01:00:40;96468.19;;;14.93;89.07
55263;BME280;41125;48.752;9.168;2023-05-22T01:01:13;96473.66;;;14.93;89.07
55263;BME280;41125;48.752;9.168;2023-05-22T01:01:47;96470.91;;;14.93;89.05
55263;BME280;41125;48.752;9.168;2023-05-22T01:02:20;96474.44;;;14.93;89.29
55263;BME280;41125;48.752;9.168;2023-05-22T01:02:52;96477.50;;;14.92;88.91
55263;BME280;41125;48.752;9.168;2023-05-22T01:03:24;96466.91;;;14.90;89.18
55263;BME280;41125;48.752;9.168;2023-05-22T01:04:01;96466.13;;;14.90;88.76
55263;BME280;41125;48.752;9.168;2023-05-22T01:04:38;96471.59;;;14.90;88.81
55263;BME280;41125;48.752;9.168;2023-05-22T01:05:11;96470.00;;;14.89;88.85
55263;BME280;41125;48.752;9.168;2023-05-22T01:05:43;96475.47;;;14.89;88.71
55263;BME280;41125;48.752;9.168;2023-05-22T01:06:17;96465.66;;;14.88;88.64
55263;BME280;41125;48.752;9.168;2023-05-22T01:06:54;96475.47;;;14.89;89.03
55263;BME280;41125;48.752;9.168;2023-05-22T01:07:25;96470.00;;;14.89;88.85
55263;BME280;41125;48.752;9.168;2023-05-22T01:07:58;96470.00;;;14.89;88.92
55263;BME280;41125;48.752;9.168;2023-05-22T01:08:31;96473.88;;;14.88;89.32
55263;BME280;41125;48.752;9.168;2023-05-22T01:09:03;96470.00;;;14.89;88.72
55263;BME280;41125;48.752;9.168;2023-05-22T01:09:35;96470.81;;;14.89;89.00
55263;BME280;41125;48.752;9.168;2023-05-22T01:10:08;96470.00;;;14.89;89.07
55263;BME280;41125;48.752;9.168;2023-05-22T01:10:42;96467.28;;;14.89;89.10
55263;BME280;41125;48.752;9.168;2023-05-22T01:12:54;96470.00;;;14.89;88.79
55263;BME280;41125;48.752;9.168;2023-05-22T01:15:41;96471.59;;;14.90;88.70
55263;BME280;41125;48.752;9.168;2023-05-22T01:16:53;96473.19;;;14.91;88.55
55263;BME280;41125;48.752;9.168;2023-05-22T01:20:34;96473.97;;;14.91;88.26
55263;BME280;41125;48.752;9.168;2023-05-22T01:21:24;96473.19;;;14.91;88.31
55263;BME280;41125;48.752;9.168;2023-05-22T01:23:44;96475.91;;;14.91;88.18
55263;BME280;41125;48.752;9.168;2023-05-22T01:24:59;96473.97;;;14.91;88.12
55263;BME280;41125;48.752;9.168;2023-05-22T01:27:27;96479.09;;;14.93;88.25
55263;BME280;41125;48.752;9.168;2023-05-22T01:29:42;96477.97;;;14.94;87.89
55263;BME280;41125;48.752;9.168;2023-05-22T01:31:49;96479.59;;;14.95;87.99
55263;BME280;41125;48.752;9.168;2023-05-22T01:32:25;96481.84;;;14.93;87.81
55263;BME280;41125;48.752;9.168;2023-05-22T01:33:01;96474.44;;;14.93;87.88
55263;BME280;41125;48.752;9.168;2023-05-22T01:33:42;96483.44;;;14.94;88.04
55263;BME280;41125;48.752;9.168;2023-05-22T01:34:21;96481.84;;;14.93;87.96
55263;BME280;41125;48.752;9.168;2023-05-22T01:34:57;96482.97;;;14.92;88.72
55263;BME280;41125;48.752;9.168;2023-05-22T01:35:33;96485.91;;;14.87;89.66
55263;BME280;41125;48.752;9.168;2023-05-22T01:36:07;96489.31;;;14.84;89.86
55263;BME280;41125;48.752;9.168;2023-05-22T01:36:44;96484.03;;;14.79;90.42
55263;BME280;41125;48.752;9.168;2023-05-22T01:37:20;96492.88;;;14.75;89.82
55263;BME280;41125;48.752;9.168;2023-05-22T01:37:55;96491.28;;;14.74;89.50
55263;BME280;41125;48.752;9.168;2023-05-22T01:38:30;96491.28;;;14.74;89.92
55263;BME280;41125;48.752;9.168;2023-05-22T01:39:06;96495.13;;;14.73;90.13
55263;BME280;41125;48.752;9.168;2023-05-22T01:39:40;96486.94;;;14.73;90.32
55263;BME280;41125;48.752;9.168;2023-05-22T01:40:16;96489.66;;;14.73;90.33
55263;BME280;41125;48.752;9.168;2023-05-22T01:40:50;96490.81;;;14.72;90.03
55263;BME280;41125;48.752;9.168;2023-05-22T01:41:25;96491.94;;;14.71;90.23
55263;BME280;41125;48.752;9.168;2023-05-22T01:42:00;96491.94;;;14.71;90.12
55263;BME280;41125;48.752;9.168;2023-05-22T01:42:34;96490.34;;;14.70;90.07
55263;BME280;41125;48.752;9.168;2023-05-22T01:43:08;96493.06;;;14.70;90.07
55263;BME280;41125;48.752;9.168;2023-05-22T01:43:41;96493.06;;;14.70;90.17
55263;BME280;41125;48.752;9.168;2023-05-22T01:44:14;96495.78;;;14.70;90.18
55263;BME280;41125;48.752;9.168;2023-05-22T01:44:48;96487.59;;;14.70;90.42
55263;BME280;41125;48.752;9.168;2023-05-22T01:45:22;96489.53;;;14.70;90.16
55263;BME280;41125;48.752;9.168;2023-05-22T01:45:54;96488.72;;;14.69;90.32
55263;BME280;41125;48.752;9.168;2023-05-22T01:46:27;96494.19;;;14.69;89.84
55263;BME280;41125;48.752;9.168;2023-05-22T01:47:01;96488.72;;;14.69;90.18
55263;BME280;41125;48.752;9.168;2023-05-22T01:47:39;96488.72;;;14.69;90.24
55263;BME280;41125;48.752;9.168;2023-05-22T01:48:12;96483.25;;;14.69;90.07
55263;BME280;41125;48.752;9.168;2023-05-22T01:48:43;96490.34;;;14.70;90.21
55263;BME280;41125;48.752;9.168;2023-05-22T01:49:17;96490.34;;;14.70;90.30
55263;BME280;41125;48.752;9.168;2023-05-22T01:49:50;96493.88;;;14.71;90.11
55263;BME280;41125;48.752;9.168;2023-05-22T01:50:23;96491.94;;;14.71;90.26
55263;BME280;41125;48.752;9.168;2023-05-22T01:51:01;96485.66;;;14.71;89.98
55263;BME280;41125;48.752;9.168;2023-05-22T01:52:02;96482.94;;;14.71;89.79
55263;BME280;41125;48.752;9.168;2023-05-22T01:52:55;96488.88;;;14.73;89.97
55263;BME280;41125;48.752;9.168;2023-05-22T01:53:39;96489.66;;;14.73;90.10
55263;BME280;41125;48.752;9.168;2023-05-22T01:54:27;96494.34;;;14.73;89.82
55263;BME280;41125;48.752;9.168;2023-05-22T01:55:15;96492.41;;;14.73;89.58
55263;BME280;41125;48.752;9.168;2023-05-22T01:56:13;96495.13;;;14.73;89.65
55263;BME280;41125;48.752;9.168;2023-05-22T01:57:06;96492.41;;;14.73;89.60
55263;BME280;41125;48.752;9.168;2023-05-22T01:58:11;96490.47;;;14.74;89.60
55263;BME280;41125;48.752;9.168;2023-05-22T01:58:53;96492.88;;;14.75;89.68
55263;BME280;41125;48.752;9.168;2023-05-22T02:00:07;96496.75;;;14.74;89.54
55263;BME280;41125;48.752;9.168;2023-05-22T02:00:52;96495.59;;;14.75;89.38
55263;BME280;41125;48.752;9.168;2023-05-22T02:01:39;96493.69;;;14.76;89.31
55263;BME280;41125;48.752;9.168;2023-05-22T02:02:24;96494.47;;;14.77;89.80
55263;BME280;41125;48.752;9.168;2023-05-22T02:03:15;96488.72;;;14.69;90.03
55263;BME280;41125;48.752;9.168;2023-05-22T02:03:57;96493.69;;;14.76;90.22
55263;BME280;41125;48.752;9.168;2023-05-22T02:04:29;96498.34;;;14.75;90.42
55263;BME280;41125;48.752;9.168;2023-05-22T02:05:05;96501.41;;;14.74;90.92
55263;BME280;41125;48.752;9.168;2023-05-22T02:05:41;96498.19;;;14.72;91.07
55263;BME280;41125;48.752;9.168;2023-05-22T02:06:15;96498.53;;;14.70;91.30
55263;BME280;41125;48.752;9.168;2023-05-22T02:06:52;96499.19;;;14.67;91.90
55263;BME280;41125;48.752;9.168;2023-05-22T02:07:25;96493.25;;;14.65;91.92
55263;BME280;41125;48.752;9.168;2023-05-22T02:08:01;96497.09;;;14.64;91.73
55263;BME280;41125;48.752;9.168;2023-05-22T02:08:34;96500.97;;;14.63;91.93
55263;BME280;41125;48.752;9.168;2023-05-22T02:09:10;96500.97;;;14.63;91.55
55263;BME280;41125;48.752;9.168;2023-05-22T02:09:46;96497.75;;;14.61;91.50
55263;BME280;41125;48.752;9.168;2023-05-22T02:10:21;96497.75;;;14.61;91.49
55263;BME280;41125;48.752;9.168;2023-05-22T02:10:58;96496.94;;;14.61;91.38
55263;BME280;41125;48.752;9.168;2023-05-22T02:11:34;96494.22;;;14.61;91.05
55263;BME280;41125;48.752;9.168;2023-05-22T02:12:10;96496.16;;;14.60;91.07
55263;BME280;41125;48.752;9.168;2023-05-22T02:12:44;96494.53;;;14.59;91.30
55263;BME280;41125;48.752;9.168;2023-05-22T02:13:18;96503.53;;;14.60;91.12
55263;BME280;41125;48.752;9.168;2023-05-22T02:13:52;96491.81;;;14.59;90.96
55263;BME280;41125;48.752;9.168;2023-05-22T02:14:25;96498.06;;;14.60;90.81
55263;BME280;41125;48.752;9.168;2023-05-22T02:14:57;96500.47;;;14.61;90.94
55263;BME280;41125;48.752;9.168;2023-05-22T02:15:30;96496.16;;;14.60;91.08
55263;BME280;41125;48.752;9.168;2023-05-22T02:16:08;96498.56;;;14.62;90.74
55263;BME280;41125;48.752;9.168;2023-05-22T02:16:41;96499.34;;;14.62;90.94
55263;BME280;41125;48.752;9.168;2023-05-22T02:17:18;96495.50;;;14.63;90.73
55263;BME280;41125;48.752;9.168;2023-05-22T02:17:53;96500.97;;;14.63;90.42
55263;BME280;41125;48.752;9.168;2023-05-22T02:18:29;96495.50;;;14.63;90.74
55263;BME280;41125;48.752;9.168;2023-05-22T02:19:03;96497.09;;;14.64;90.43
55263;BME280;41125;48.752;9.168;2023-05-22T02:19:41;96494.37;;;14.64;90.57
55263;BME280;41125;48.752;9.168;2023-05-22T02:20:15;96504.16;;;14.65;90.59
55263;BME280;41125;48.752;9.168;2023-05-22T02:20:46;96498.69;;;14.65;90.41
55263;BME280;41125;48.752;9.168;2023-05-22T02:21:21;96494.84;;;14.66;90.45
55263;BME280;41125;48.752;9.168;2023-05-22T02:21:52;96500.31;;;14.66;90.43
55263;BME280;41125;48.752;9.168;2023-05-22T02:22:29;96502.72;;;14.68;90.52
55263;BME280;41125;48.752;9.168;2023-05-22T02:23:02;96496.44;;;14.67;90.43
55263;BME280;41125;48.752;9.168;2023-05-22T02:23:35;96498.03;;;14.68;90.46
55263;BME280;41125;48.752;9.168;2023-05-22T02:24:10;96500.78;;;14.68;90.23
55263;BME280;41125;48.752;9.168;2023-05-22T02:24:47;96492.59;;;14.68;90.32
55263;BME280;41125;48.752;9.168;2023-05-22T02:25:29;96504.31;;;14.69;90.14
55263;BME280;41125;48.752;9.168;2023-05-22T02:26:04;96492.59;;;14.68;90.19
55263;BME280;41125;48.752;9.168;2023-05-22T02:26:39;96494.19;;;14.69;90.55
55263;BME280;41125;48.752;9.168;2023-05-22T02:27:13;96498.03;;;14.68;90.53
55263;BME280;41125;48.752;9.168;2023-05-22T02:27:46;96493.38;;;14.69;90.29
55263;BME280;41125;48.752;9.168;2023-05-22T02:28:22;96492.59;;;14.68;90.23
55263;BME280;41125;48.752;9.168;2023-05-22T02:28:54;96492.59;;;14.68;90.28
55263;BME280;41125;48.752;9.168;2023-05-22T02:29:25;96499.66;;;14.69;90.50
55263;BME280;41125;48.752;9.168;2023-05-22T02:29:59;96496.13;;;14.69;90.69
55263;BME280;41125;48.752;9.168;2023-05-22T02:30:31;96494.19;;;14.69;90.29
55263;BME280;41125;48.752;9.168;2023-05-22T02:31:04;96498.84;;;14.69;90.57
55263;BME280;41125;48.752;9.168;2023-05-22T02:31:35;96488.25;;;14.67;90.09
55263;BME280;41125;48.752;9.168;2023-05-22T02:32:08;96493.72;;;14.67;90.56
55263;BME280;41125;48.752;9.168;2023-05-22T02:32:41;96483.59;;;14.68;90.54
55263;BME280;41125;48.752;9.168;2023-05-22T02:33:16;96489.84;;;14.68;90.40
55263;BME280;41125;48.752;9.168;2023-05-22T02:33:50;96490.66;;;14.69;90.51
55263;BME280;41125;48.752;9.168;2023-05-22T02:34:25;96487.13;;;14.68;90.45
55263;BME280;41125;48.752;9.168;2023-05-22T02:34:57;96491.47;;;14.69;90.28
55263;BME280;41125;48.752;9.168;2023-05-22T02:35:31;96482.47;;;14.69;90.43
55263;BME280;41125;48.752;9.168;2023-05-22T02:36:05;96486.81;;;14.70;90.32
55263;BME280;41125;48.752;9.168;2023-05-22T02:36:41;96488.06;;;14.72;90.51
55263;BME280;41125;48.752;9.168;2023-05-22T02:37:13;96483.75;;;14.71;90.64
55263;BME280;41125;48.752;9.168;2023-05-22T02:37:46;96489.66;;;14.73;90.44
55263;BME280;41125;48.752;9.168;2023-05-22T02:38:17;96491.28;;;14.74;90.39
55263;BME280;41125;48.752;9.168;2023-05-22T02:38:48;96487.41;;;14.75;90.41
55263;BME280;41125;48.752;9.168;2023-05-22T02:39:20;96495.59;;;14.75;90.23
55263;BME280;41125;48.752;9.168;2023-05-22T02:39:52;96491.75;;;14.77;90.28
55263;BME280;41125;48.752;9.168;2023-05-22T02:40:23;96489.03;;;14.77;90.24
55263;BME280;41125;48.752;9.168;2023-05-22T02:40:55;96495.28;;;14.77;90.12
55263;BME280;41125;48.752;9.168;2023-05-22T02:41:26;96486.75;;;14.79;89.80
55263;BME280;41125;48.752;9.168;2023-05-22T02:41:57;96484.03;;;14.79;90.12
55263;BME280;41125;48.752;9.168;2023-05-22T02:42:28;96486.75;;;14.79;90.05
55263;BME280;41125;48.752;9.168;2023-05-22T02:43:00;96489.97;;;14.81;89.89
55263;BME280;41125;48.752;9.168;2023-05-22T02:43:35;96489.50;;;14.79;90.43
55263;BME280;41125;48.752;9.168;2023-05-22T02:44:06;96491.09;;;14.80;90.03
55263;BME280;41125;48.752;9.168;2023-05-22T02:44:37;96490.75;;;14.81;89.95
55263;BME280;41125;48.752;9.168;2023-05-22T02:45:11;96484.50;;;14.81;90.45
55263;BME280;41125;48.752;9.168;2023-05-22T02:45:42;96485.31;;;14.81;89.78
55263;BME280;41125;48.752;9.168;2023-05-22T02:46:15;96489.97;;;14.81;90.16
55263;BME280;41125;48.752;9.168;2023-05-22T02:46:49;96484.50;;;14.81;90.30
55263;BME280;41125;48.752;9.168;2023-05-22T02:47:20;96486.44;;;14.80;90.17
55263;BME280;41125;48.752;9.168;2023-05-22T02:47:52;96488.84;;;14.82;90.68
55263;BME280;41125;48.752;9.168;2023-05-22T02:48:25;96481.78;;;14.81;90.68
55263;BME280;41125;48.752;9.168;2023-05-22T02:49:02;96491.56;;;14.82;90.83
55263;BME280;41125;48.752;9.168;2023-05-22T02:49:34;96484.19;;;14.82;90.92
55263;BME280;41125;48.752;9.168;2023-05-22T02:50:09;96478.72;;;14.82;91.30
55263;BME280;41125;48.752;9.168;2023-05-22T02:50:41;96491.56;;;14.82;91.38
55263;BME280;41125;48.752;9.168;2023-05-22T02:51:15;96483.03;;;14.83;91.72
55263;BME280;41125;48.752;9.168;2023-05-22T02:51:46;96486.56;;;14.84;91.46
55263;BME280;41125;48.752;9.168;2023-05-22T02:52:19;96483.84;;;14.84;91.62
55263;BME280;41125;48.752;9.168;2023-05-22T02:52:51;96480.31;;;14.83;91.23
55263;BME280;41125;48.752;9.168;2023-05-22T02:53:24;96480.31;;;14.83;91.06
55263;BME280;41125;48.752;9.168;2023-05-22T02:53:57;96486.56;;;14.84;91.00
55263;BME280;41125;48.752;9.168;2023-05-22T02:54:29;96485.44;;;14.85;90.92
55263;BME280;41125;48.752;9.168;2023-05-22T02:55:00;96490.91;;;14.85;90.86
55263;BME280;41125;48.752;9.168;2023-05-22T02:55:31;96485.44;;;14.85;90.68
55263;BME280;41125;48.752;9.168;2023-05-22T02:56:07;96483.50;;;14.85;90.75
55263;BME280;41125;48.752;9.168;2023-05-22T02:56:43;96474.53;;;14.85;90.79
55263;BME280;41125;48.752;9.168;2023-05-22T02:57:17;96487.06;;;14.86;90.33
55263;BME280;41125;48.752;9.168;2023-05-22T02:57:49;96477.72;;;14.87;90.72
55263;BME280;41125;48.752;9.168;2023-05-22T02:58:20;96480.47;;;14.87;90.73
55263;BME280;41125;48.752;9.168;2023-05-22T02:58:59;96483.19;;;14.87;91.14
55263;BME280;41125;48.752;9.168;2023-05-22T02:59:30;96487.53;;;14.88;90.73
55263;BME280;41125;48.752;9.168;2023-05-22T03:00:06;96479.31;;;14.88;91.57
55263;BME280;41125;48.752;9.168;2023-05-22T03:00:43;96489.13;;;14.89;91.35
55263;BME280;41125;48.752;9.168;2023-05-22T03:01:16;96481.72;;;14.89;91.36
55263;BME280;41125;48.752;9.168;2023-05-22T03:01:47;96477.41;;;14.88;91.23
55263;BME280;41125;48.752;9.168;2023-05-22T03:02:18;96476.28;;;14.89;91.44
55263;BME280;41125;48.752;9.168;2023-05-22T03:02:49;96482.53;;;14.90;91.48
55263;BME280;41125;48.752;9.168;2023-05-22T03:03:21;96483.31;;;14.90;91.38
55263;BME280;41125;48.752;9.168;2023-05-22T03:03:55;96483.31;;;14.90;91.32
55263;BME280;41125;48.752;9.168;2023-05-22T03:04:28;96481.38;;;14.91;91.11
55263;BME280;41125;48.752;9.168;2023-05-22T03:04:59;96478.63;;;14.91;90.97
55263;BME280;41125;48.752;9.168;2023-05-22T03:05:33;96480.25;;;14.92;90.58
55263;BME280;41125;48.752;9.168;2023-05-22T03:06:06;96485.72;;;14.92;90.68
55263;BME280;41125;48.752;9.168;2023-05-22T03:06:41;96480.25;;;14.92;90.25
55263;BME280;41125;48.752;9.168;2023-05-22T03:07:17;96480.25;;;14.92;90.12
55263;BME280;41125;48.752;9.168;2023-05-22T03:07:51;96487.31;;;14.93;89.82
55263;BME280;41125;48.752;9.168;2023-05-22T03:08:25;96489.25;;;14.92;89.94
55263;BME280;41125;48.752;9.168;2023-05-22T03:08:59;96481.03;;;14.92;89.44
55263;BME280;41125;48.752;9.168;2023-05-22T03:09:34;96481.84;;;14.93;89.64
55263;BME280;41125;48.752;9.168;2023-05-22T03:10:09;96491.16;;;14.92;89.74
55263;BME280;41125;48.752;9.168;2023-05-22T03:10:42;96491.50;;;14.90;90.10
55263;BME280;41125;48.752;9.168;2023-05-22T03:11:13;96479.81;;;14.90;89.69
55263;BME280;41125;48.752;9.168;2023-05-22T03:12:52;96493.31;;;14.86;91.22
55263;BME280;41125;48.752;9.168;2023-05-22T03:13:24;96493.97;;;14.83;91.14
55263;BME280;41125;48.752;9.168;2023-05-22T03:13:57;96490.44;;;14.83;90.99
55263;BME280;41125;48.752;9.168;2023-05-22T03:14:29;96491.56;;;14.82;90.82
55263;BME280;41125;48.752;9.168;2023-05-22T03:15:04;96489.97;;;14.81;90.67
55263;BME280;41125;48.752;9.168;2023-05-22T03:15:36;96489.97;;;14.81;90.91
55263;BME280;41125;48.752;9.168;2023-05-22T03:16:07;96495.44;;;14.81;90.51
55263;BME280;41125;48.752;9.168;2023-05-22T03:16:39;96493.81;;;14.80;90.76
55263;BME280;41125;48.752;9.168;2023-05-22T03:17:12;96494.94;;;14.79;90.90
55263;BME280;41125;48.752;9.168;2023-05-22T03:17:44;96490.62;;;14.78;91.23
55263;BME280;41125;48.752;9.168;2023-05-22T03:18:19;96494.47;;;14.77;90.86
55263;BME280;41125;48.752;9.168;2023-05-22T03:19:13;96499.47;;;14.74;91.35
55263;BME280;41125;48.752;9.168;2023-05-22T03:19:46;96494.34;;;14.73;91.17
55263;BME280;41125;48.752;9.168;2023-05-22T03:20:17;96498.19;;;14.72;91.24
55263;BME280;41125;48.752;9.168;2023-05-22T03:20:48;96502.06;;;14.71;91.18
55263;BME280;41125;48.752;9.168;2023-05-22T03:21:21;96502.06;;;14.71;91.49
55263;BME280;41125;48.752;9.168;2023-05-22T03:21:52;96502.06;;;14.71;91.39
55263;BME280;41125;48.752;9.168;2023-05-22T03:22:23;96503.97;;;14.70;91.47
55263;BME280;41125;48.752;9.168;2023-05-22T03:22:54;96498.03;;;14.68;91.60
55263;BME280;41125;48.752;9.168;2023-05-22T03:23:26;96500.78;;;14.68;91.41
55263;BME280;41125;48.752;9.168;2023-05-22T03:23:57;96499.19;;;14.67;91.65
55263;BME280;41125;48.752;9.168;2023-05-22T03:24:29;96501.91;;;14.67;91.72
55263;BME280;41125;48.752;9.168;2023-05-22T03:25:06;96506.56;;;14.67;91.77
55263;BME280;41125;48.752;9.168;2023-05-22T03:25:40;96503.03;;;14.66;91.79
55263;BME280;41125;48.752;9.168;2023-05-22T03:26:15;96500.31;;;14.66;91.69
55263;BME280;41125;48.752;9.168;2023-05-22T03:26:48;96499.50;;;14.66;91.74
55263;BME280;41125;48.752;9.168;2023-05-22T03:27:20;96495.97;;;14.65;91.89
55263;BME280;41125;48.752;9.168;2023-05-22T03:27:51;96501.44;;;14.65;91.74
55263;BME280;41125;48.752;9.168;2023-05-22T03:28:22;96504.16;;;14.65;91.77
55263;BME280;41125;48.752;9.168;2023-05-22T03:28:56;96498.69;;;14.65;91.85
55263;BME280;41125;48.752;9.168;2023-05-22T03:29:28;96505.75;;;14.66;91.94